Time;durP1;ratioP1;P1;durP2;ratioP2;P2;SDS_P1;SDS_P2;PMS_P1;PMS_P2;Temp;Humidity;BMP_temperature;BMP_pressure;BME280_temperature;BME280_humidity;BME280_pressure;Samples;Min_cycle;Max_cycle;Signal;HPM_P1;HPM_P2
2021/11/20 00:01:57;;;;;;;22.65;13.40;;;7.10;99.90;;;;;;5094068;28;20038;-68
2021/11/20 00:04:27;;;;;;;23.20;13.27;;;7.10;99.90;;;;;;5079914;28;20051;-68
2021/11/20 00:06:56;;;;;;;21.67;13.20;;;7.10;99.90;;;;;;5105054;28;20406;-67
2021/11/20 00:09:27;;;;;;;23.55;13.20;;;7.10;99.90;;;;;;5087716;28;20048;-67
2021/11/20 00:12:04;;;;;;;23.55;14.20;;;7.10;99.90;;;;;;5110326;28;20043;-67
2021/11/20 00:14:32;;;;;;;21.25;13.57;;;7.10;99.90;;;;;;5099357;28;20043;-68
2021/11/20 00:17:01;;;;;;;25.23;14.73;;;7.10;99.90;;;;;;5083687;28;20126;-68
2021/11/20 00:19:30;;;;;;;23.60;13.70;;;7.20;99.90;;;;;;5094213;28;20093;-68
2021/11/20 00:22:22;;;;;;;23.52;13.90;;;7.20;99.90;;;;;;5074046;28;20044;-67
2021/11/20 00:24:53;;;;;;;24.10;13.85;;;7.20;99.90;;;;;;5103897;28;20109;-67
2021/11/20 00:27:24;;;;;;;25.20;14.57;;;7.20;99.90;;;;;;5108236;28;20060;-68
2021/11/20 00:30:14;;;;;;;24.48;13.23;;;7.20;99.90;;;;;;5103999;28;20067;-68
2021/11/20 00:33:00;;;;;;;20.63;12.23;;;7.10;99.90;;;;;;5075301;28;20040;-68
2021/11/20 00:35:37;;;;;;;21.90;13.75;;;7.10;99.90;;;;;;5075395;28;20054;-68
2021/11/20 00:38:06;;;;;;;24.30;13.20;;;7.10;99.90;;;;;;5080488;28;20055;-68
2021/11/20 00:40:43;;;;;;;23.60;14.15;;;7.20;99.90;;;;;;5064938;28;20047;-68
2021/11/20 00:43:12;;;;;;;23.77;14.18;;;7.20;99.90;;;;;;5093246;28;20039;-67
2021/11/20 00:45:39;;;;;;;25.13;14.10;;;7.20;99.90;;;;;;5092422;28;20134;-68
2021/11/20 00:48:07;;;;;;;25.52;14.38;;;7.20;99.90;;;;;;5071118;28;20044;-68
2021/11/20 00:50:36;;;;;;;22.75;12.73;;;7.20;99.90;;;;;;5091211;28;20157;-68
2021/11/20 00:53:05;;;;;;;23.52;13.25;;;7.20;99.90;;;;;;5091168;28;20490;-67
2021/11/20 00:55:33;;;;;;;27.30;14.57;;;7.30;99.90;;;;;;5077209;28;20036;-67
2021/11/20 00:58:01;;;;;;;24.05;14.23;;;7.30;99.90;;;;;;5090144;28;20031;-69
2021/11/20 01:00:34;;;;;;;25.70;15.02;;;7.30;99.90;;;;;;5109805;28;20492;-68
2021/11/20 01:03:03;;;;;;;26.92;15.18;;;7.30;99.90;;;;;;5074593;28;20040;-68
2021/11/20 01:05:31;;;;;;;25.20;14.68;;;7.30;99.90;;;;;;5070635;28;20048;-68
2021/11/20 01:08:03;;;;;;;26.80;15.00;;;7.30;99.90;;;;;;5088137;28;20047;-68
2021/11/20 01:10:35;;;;;;;27.75;15.98;;;7.30;99.90;;;;;;5074790;28;20304;-68
2021/11/20 01:13:04;;;;;;;27.38;15.13;;;7.30;99.90;;;;;;5076477;28;20040;-68
2021/11/20 01:15:48;;;;;;;31.05;16.23;;;7.30;99.90;;;;;;5080168;28;20044;-68
2021/11/20 01:18:17;;;;;;;27.95;15.45;;;7.40;99.90;;;;;;5071900;28;20079;-67
2021/11/20 01:20:45;;;;;;;29.50;15.82;;;7.30;99.90;;;;;;5085390;28;20486;-67
2021/11/20 01:23:14;;;;;;;26.40;14.98;;;7.40;99.90;;;;;;5111181;28;20044;-67
2021/11/20 01:25:51;;;;;;;25.30;14.18;;;7.30;99.90;;;;;;5091772;28;20088;-67
2021/11/20 01:28:34;;;;;;;;;;;7.40;99.90;;;;;;5090537;28;20043;-68
2021/11/20 01:31:12;;;;;;;24.92;13.55;;;7.30;99.90;;;;;;5081171;28;19931;-68
2021/11/20 01:33:46;;;;;;;28.85;14.73;;;7.30;99.90;;;;;;5085942;28;20036;-68
2021/11/20 01:36:17;;;;;;;29.40;15.75;;;7.30;99.90;;;;;;5076036;28;20040;-68
2021/11/20 01:38:46;;;;;;;26.17;13.95;;;7.40;99.90;;;;;;5088329;28;20082;-67
2021/11/20 01:41:20;;;;;;;28.42;15.73;;;7.30;99.90;;;;;;5087020;28;20039;-69
2021/11/20 01:44:14;;;;;;;27.50;15.52;;;7.40;99.90;;;;;;5078528;28;20378;-68
2021/11/20 01:46:47;;;;;;;26.95;15.48;;;7.40;99.90;;;;;;5072509;28;20451;-68
2021/11/20 01:49:28;;;;;;;28.13;14.75;;;7.40;99.90;;;;;;5071517;28;20042;-67
2021/11/20 01:52:17;;;;;;;27.63;15.38;;;7.40;99.90;;;;;;5057512;28;20139;-68
2021/11/20 01:55:02;;;;;;;27.88;15.52;;;7.40;99.90;;;;;;5088318;28;20494;-67
2021/11/20 01:58:03;;;;;;;27.35;15.70;;;7.50;99.90;;;;;;5071731;28;20445;-68
2021/11/20 02:00:44;;;;;;;27.65;14.93;;;7.40;99.90;;;;;;5087874;28;20123;-68
2021/11/20 02:03:21;;;;;;;30.02;16.90;;;7.40;99.90;;;;;;5079689;28;20462;-68
2021/11/20 02:06:06;;;;;;;30.15;16.35;;;7.50;99.90;;;;;;5091033;28;20032;-68
2021/11/20 02:09:09;;;;;;;29.38;15.80;;;7.50;99.90;;;;;;5112830;28;20348;-68
2021/11/20 02:12:01;;;;;;;27.67;15.25;;;7.50;99.90;;;;;;5109416;28;20066;-69
2021/11/20 02:14:30;;;;;;;30.00;16.85;;;7.50;99.90;;;;;;5096238;28;20475;-68
2021/11/20 02:17:04;;;;;;;25.83;15.30;;;7.50;99.90;;;;;;5079815;28;20067;-68
2021/11/20 02:19:39;;;;;;;28.80;16.02;;;7.50;99.90;;;;;;5077631;28;20030;-68
2021/11/20 02:22:26;;;;;;;27.85;16.10;;;7.50;99.90;;;;;;5087411;28;20032;-68
2021/11/20 02:24:53;;;;;;;29.23;15.52;;;7.50;99.90;;;;;;5058138;28;20044;-68
2021/11/20 02:27:45;;;;;;;24.80;14.60;;;7.50;99.90;;;;;;5086451;28;20043;-68
2021/11/20 02:30:18;;;;;;;29.73;16.90;;;7.50;99.90;;;;;;5106432;28;20401;-69
2021/11/20 02:32:59;;;;;;;28.00;15.95;;;7.50;99.90;;;;;;5087420;28;20100;-68
2021/11/20 02:35:55;;;;;;;26.95;15.30;;;7.50;99.90;;;;;;5088567;28;20424;-68
2021/11/20 02:38:30;;;;;;;28.30;15.75;;;7.50;99.90;;;;;;5074529;28;20044;-69
2021/11/20 02:40:59;;;;;;;;;;;7.50;99.90;;;;;;5087650;28;20039;-69
2021/11/20 02:43:31;;;;;;;27.48;15.57;;;7.50;99.90;;;;;;5069552;28;19919;-69
2021/11/20 02:46:10;;;;;;;26.63;15.38;;;7.40;99.90;;;;;;5066203;28;20040;-69
2021/11/20 02:48:38;;;;;;;28.10;15.57;;;7.40;99.90;;;;;;5087902;28;20039;-69
2021/11/20 02:51:09;;;;;;;27.58;14.73;;;7.50;99.90;;;;;;5095789;28;20089;-69
2021/11/20 02:53:41;;;;;;;26.05;15.00;;;7.50;99.90;;;;;;5079448;28;20044;-69
2021/11/20 02:56:12;;;;;;;28.52;16.17;;;7.50;99.90;;;;;;5091631;28;20463;-69
2021/11/20 02:58:40;;;;;;;30.95;18.08;;;7.50;99.90;;;;;;5078926;28;20058;-68
2021/11/20 03:01:14;;;;;;;31.42;17.50;;;7.50;99.90;;;;;;5080076;28;20063;-68
2021/11/20 03:03:43;;;;;;;30.95;16.45;;;7.50;99.90;;;;;;5095178;28;20410;-69
2021/11/20 03:06:10;;;;;;;26.92;16.13;;;7.60;99.90;;;;;;5112908;28;20057;-69
2021/11/20 03:08:38;;;;;;;32.13;17.77;;;7.50;99.90;;;;;;5074725;28;20052;-68
2021/11/20 03:11:13;;;;;;;;;;;7.50;99.90;;;;;;5089524;28;20505;-69
2021/11/20 03:13:48;;;;;;;28.60;15.57;;;7.50;99.90;;;;;;5095137;28;19973;-68
2021/11/20 03:16:47;;;;;;;26.63;16.02;;;7.50;99.90;;;;;;5100317;28;20491;-68
2021/11/20 03:19:15;;;;;;;33.90;18.00;;;7.40;99.90;;;;;;5088228;28;20036;-69
2021/11/20 03:21:47;;;;;;;30.25;16.35;;;7.40;99.90;;;;;;5091791;28;20503;-69
2021/11/20 03:24:17;;;;;;;34.63;18.27;;;7.50;99.90;;;;;;5080404;28;20370;-69
2021/11/20 03:26:45;;;;;;;31.10;17.58;;;7.50;99.90;;;;;;5073296;28;20575;-69
2021/11/20 03:29:13;;;;;;;31.05;17.52;;;7.50;99.90;;;;;;5088463;28;20050;-68
2021/11/20 03:31:42;;;;;;;33.08;18.08;;;7.50;99.90;;;;;;5078934;28;20068;-69
2021/11/20 03:34:10;;;;;;;31.48;17.30;;;7.50;99.90;;;;;;5091331;28;20073;-69
2021/11/20 03:36:39;;;;;;;31.85;17.98;;;7.40;99.90;;;;;;5077953;28;20035;-68
2021/11/20 03:39:11;;;;;;;29.73;16.40;;;7.40;99.90;;;;;;5076931;28;20047;-68
2021/11/20 03:41:40;;;;;;;30.30;17.40;;;7.40;99.90;;;;;;5085780;28;20075;-68
2021/11/20 03:44:07;;;;;;;32.35;17.83;;;7.40;99.90;;;;;;5085034;28;20038;-68
2021/11/20 03:46:36;;;;;;;30.73;16.92;;;7.40;99.90;;;;;;5087672;28;20127;-69
2021/11/20 03:49:04;;;;;;;33.50;18.58;;;7.40;99.90;;;;;;5092650;28;20039;-69
2021/11/20 03:51:33;;;;;;;31.80;16.85;;;7.40;99.90;;;;;;5085221;28;20055;-68
2021/11/20 03:54:01;;;;;;;28.77;16.77;;;7.40;99.90;;;;;;5090257;28;20066;-69
2021/11/20 03:56:30;;;;;;;34.03;16.98;;;7.40;99.90;;;;;;5093819;28;20050;-69
2021/11/20 03:58:58;;;;;;;31.10;17.15;;;7.40;99.90;;;;;;5094243;28;20070;-68
2021/11/20 04:01:28;;;;;;;32.92;17.48;;;7.40;99.90;;;;;;5073321;28;20405;-68
2021/11/20 04:03:56;;;;;;;30.60;17.27;;;7.40;99.90;;;;;;5084827;28;20050;-69
2021/11/20 04:06:24;;;;;;;32.13;16.83;;;7.40;99.90;;;;;;5093614;28;20050;-68
2021/11/20 04:09:00;;;;;;;34.17;17.92;;;7.40;99.90;;;;;;5069675;28;20052;-69
2021/11/20 04:11:31;;;;;;;37.03;18.52;;;7.50;99.90;;;;;;5070325;28;20040;-69
2021/11/20 04:13:59;;;;;;;33.47;18.03;;;7.40;99.90;;;;;;5083557;28;20483;-69
2021/11/20 04:16:29;;;;;;;32.05;17.27;;;7.50;99.90;;;;;;5063018;28;20371;-68
2021/11/20 04:18:59;;;;;;;31.10;16.73;;;7.40;99.90;;;;;;5090181;28;20036;-68
2021/11/20 04:21:32;;;;;;;31.27;17.17;;;7.40;99.90;;;;;;5078251;28;20043;-68
2021/11/20 04:24:00;;;;;;;34.83;17.83;;;7.40;99.90;;;;;;5090692;28;20058;-68
2021/11/20 04:26:53;;;;;;;33.72;17.55;;;7.40;99.90;;;;;;5091037;28;20486;-69
2021/11/20 04:29:26;;;;;;;35.70;18.45;;;7.40;99.90;;;;;;5073447;28;20063;-68
2021/11/20 04:31:55;;;;;;;35.78;18.85;;;7.40;99.90;;;;;;5059064;28;20059;-69
2021/11/20 04:34:23;;;;;;;31.23;17.17;;;7.40;99.90;;;;;;5080021;28;20038;-69
2021/11/20 04:36:52;;;;;;;30.70;15.65;;;7.30;99.90;;;;;;5055751;28;20066;-68
2021/11/20 04:39:19;;;;;;;34.17;17.60;;;7.40;99.90;;;;;;5055957;28;20040;-68
2021/11/20 04:41:47;;;;;;;30.60;16.13;;;7.30;99.90;;;;;;5073227;28;20449;-68
2021/11/20 04:44:15;;;;;;;32.00;16.92;;;7.30;99.90;;;;;;5093222;28;20089;-68
2021/11/20 04:46:42;;;;;;;32.50;16.85;;;7.30;99.90;;;;;;5079389;28;20063;-68
2021/11/20 04:49:09;;;;;;;31.13;16.65;;;7.30;99.90;;;;;;5088357;28;20028;-67
2021/11/20 04:51:37;;;;;;;35.95;17.42;;;7.40;99.90;;;;;;5091621;28;20048;-68
2021/11/20 04:54:05;;;;;;;34.50;17.42;;;7.30;99.90;;;;;;5074725;28;20050;-69
2021/11/20 04:56:32;;;;;;;32.70;16.55;;;7.40;99.90;;;;;;5089537;28;20051;-68
2021/11/20 04:59:00;;;;;;;34.75;16.98;;;7.40;99.90;;;;;;5092729;28;20040;-69
2021/11/20 05:01:30;;;;;;;32.83;17.00;;;7.40;99.90;;;;;;5073551;28;20093;-67
2021/11/20 05:04:01;;;;;;;29.63;16.27;;;7.30;99.90;;;;;;5084455;28;20092;-68
2021/11/20 05:06:33;;;;;;;37.13;18.58;;;7.30;99.90;;;;;;5093254;28;20084;-68
2021/11/20 05:09:02;;;;;;;30.23;16.38;;;7.30;99.90;;;;;;5092603;28;20112;-68
2021/11/20 05:11:34;;;;;;;34.92;18.48;;;7.30;99.90;;;;;;5089236;28;20055;-68
2021/11/20 05:14:03;;;;;;;34.30;18.02;;;7.30;99.90;;;;;;5100546;28;20067;-69
2021/11/20 05:16:32;;;;;;;33.60;18.33;;;7.30;99.90;;;;;;5073539;28;20050;-68
2021/11/20 05:19:00;;;;;;;34.63;17.38;;;7.30;99.90;;;;;;5062779;28;20495;-68
2021/11/20 05:21:40;;;;;;;35.13;17.58;;;7.30;99.90;;;;;;5072484;28;20043;-68
2021/11/20 05:24:08;;;;;;;35.78;18.02;;;7.30;99.90;;;;;;5073181;28;20444;-69
2021/11/20 05:26:36;;;;;;;33.25;16.73;;;7.30;99.90;;;;;;5076890;28;20054;-69
2021/11/20 05:29:06;;;;;;;31.23;15.82;;;7.30;99.90;;;;;;5071590;28;20036;-69
2021/11/20 05:31:43;;;;;;;34.08;17.70;;;7.30;99.90;;;;;;5072467;28;20488;-69
2021/11/20 05:34:11;;;;;;;31.65;17.23;;;7.30;99.90;;;;;;5072664;28;20036;-69
2021/11/20 05:36:39;;;;;;;37.08;17.40;;;7.30;99.90;;;;;;5090897;28;20036;-69
2021/11/20 05:39:11;;;;;;;33.65;16.48;;;7.30;99.90;;;;;;5088170;28;20375;-69
2021/11/20 05:41:39;;;;;;;28.45;15.40;;;7.40;99.90;;;;;;5088492;28;20036;-69
2021/11/20 05:44:11;;;;;;;35.38;17.73;;;7.40;99.90;;;;;;5086046;28;20122;-69
2021/11/20 05:46:52;;;;;;;32.30;17.52;;;7.40;99.90;;;;;;5072682;28;20040;-69
2021/11/20 05:49:20;;;;;;;33.05;17.55;;;7.40;99.90;;;;;;5075341;28;20394;-69
2021/11/20 05:51:48;;;;;;;31.33;16.08;;;7.40;99.90;;;;;;5104131;28;20051;-70
2021/11/20 05:54:16;;;;;;;29.77;16.27;;;7.40;99.90;;;;;;5080958;28;20035;-69
2021/11/20 05:56:47;;;;;;;31.50;17.20;;;7.40;99.90;;;;;;5082340;28;20036;-69
2021/11/20 05:59:26;;;;;;;29.77;16.55;;;7.40;99.90;;;;;;5063862;28;20040;-69
2021/11/20 06:01:54;;;;;;;32.92;17.08;;;7.40;99.90;;;;;;5092512;28;20474;-69
2021/11/20 06:04:26;;;;;;;34.50;16.83;;;7.40;99.90;;;;;;5091845;28;20043;-69
2021/11/20 06:06:53;;;;;;;33.28;17.30;;;7.40;99.90;;;;;;5080275;28;20046;-68
2021/11/20 06:09:21;;;;;;;30.35;16.20;;;7.40;99.90;;;;;;5087806;28;20043;-68
2021/11/20 06:11:49;;;;;;;31.20;16.88;;;7.40;99.90;;;;;;5090482;28;20124;-68
2021/11/20 06:14:18;;;;;;;32.38;16.55;;;7.40;99.90;;;;;;5108107;28;20036;-68
2021/11/20 06:16:45;;;;;;;30.27;16.73;;;7.40;99.90;;;;;;5108365;28;20031;-67
2021/11/20 06:19:13;;;;;;;28.75;15.35;;;7.40;99.90;;;;;;5074401;28;20517;-68
2021/11/20 06:21:41;;;;;;;29.45;16.10;;;7.40;99.90;;;;;;5086862;28;20039;-68
2021/11/20 06:24:11;;;;;;;30.27;16.98;;;7.40;99.90;;;;;;5089635;28;20390;-68
2021/11/20 06:26:39;;;;;;;29.83;16.52;;;7.50;99.90;;;;;;5084690;28;20501;-68
2021/11/20 06:29:06;;;;;;;36.15;19.40;;;7.50;99.90;;;;;;5073543;28;20044;-68
2021/11/20 06:31:36;;;;;;;37.90;20.02;;;7.50;99.90;;;;;;5089816;28;20398;-69
2021/11/20 06:34:36;;;;;;;33.67;18.02;;;7.50;99.90;;;;;;5058200;28;20043;-69
2021/11/20 06:37:24;;;;;;;32.33;17.33;;;7.50;99.90;;;;;;5082497;28;20135;-68
2021/11/20 06:40:09;;;;;;;35.83;18.75;;;7.50;99.90;;;;;;5087508;28;20473;-68
2021/11/20 06:42:40;;;;;;;31.60;17.88;;;7.50;99.90;;;;;;5083690;28;20055;-69
2021/11/20 06:45:10;;;;;;;31.80;17.13;;;7.50;99.90;;;;;;5081961;28;20054;-68
2021/11/20 06:47:37;;;;;;;31.63;16.85;;;7.50;99.90;;;;;;5094656;28;20479;-69
2021/11/20 06:50:05;;;;;;;32.50;17.85;;;7.50;99.90;;;;;;5085522;28;20050;-69
2021/11/20 06:52:53;;;;;;;30.58;17.30;;;7.50;99.90;;;;;;5101657;28;20067;-69
2021/11/20 06:55:55;;;;;;;32.65;17.52;;;7.50;99.90;;;;;;5030535;28;20057;-69
2021/11/20 06:59:15;;;;;;;31.40;17.35;;;7.50;99.90;;;;;;5027806;28;20758;-69
2021/11/20 07:01:46;;;;;;;34.70;18.65;;;7.60;99.90;;;;;;5006377;28;20309;-69
2021/11/20 07:04:21;;;;;;;31.60;17.63;;;7.60;99.90;;;;;;4996691;28;20068;-69
2021/11/20 07:07:01;;;;;;;32.47;17.75;;;7.60;99.90;;;;;;5029428;28;20385;-69
2021/11/20 07:09:29;;;;;;;34.08;18.08;;;7.60;99.90;;;;;;4996499;28;20083;-70
2021/11/20 07:11:56;;;;;;;30.98;17.50;;;7.60;99.90;;;;;;5016294;28;20547;-70
2021/11/20 07:14:25;;;;;;;32.03;17.85;;;7.70;99.90;;;;;;5012111;28;20128;-70
2021/11/20 07:16:53;;;;;;;29.30;16.80;;;7.70;99.90;;;;;;5011871;28;20769;-69
2021/11/20 07:19:22;;;;;;;34.00;17.13;;;7.80;99.90;;;;;;5020047;28;20056;-69
2021/11/20 07:22:08;;;;;;;28.27;15.52;;;7.80;99.90;;;;;;5030379;28;20116;-69
2021/11/20 07:24:36;;;;;;;32.92;17.83;;;7.80;99.90;;;;;;5006266;28;20060;-69
2021/11/20 07:27:07;;;;;;;32.13;18.88;;;7.80;99.90;;;;;;5017734;28;20049;-68
2021/11/20 07:29:34;;;;;;;37.90;19.02;;;7.80;99.90;;;;;;5042550;28;20075;-69
2021/11/20 07:32:04;;;;;;;33.28;18.77;;;7.80;99.90;;;;;;5082480;28;20036;-69
2021/11/20 07:34:32;;;;;;;30.83;16.55;;;7.80;99.90;;;;;;5090735;28;20123;-69
2021/11/20 07:37:00;;;;;;;29.25;16.92;;;7.80;99.90;;;;;;5090132;28;20524;-69
2021/11/20 07:39:29;;;;;;;28.85;16.45;;;7.90;99.90;;;;;;5107789;28;20039;-69
2021/11/20 07:41:58;;;;;;;33.45;17.05;;;7.90;99.90;;;;;;5067882;28;20460;-69
2021/11/20 07:44:26;;;;;;;42.58;22.85;;;7.90;99.90;;;;;;5108793;28;20514;-69
2021/11/20 07:46:54;;;;;;;33.53;17.38;;;8.00;99.90;;;;;;5083980;28;20044;-69
2021/11/20 07:49:29;;;;;;;30.58;17.38;;;8.00;99.90;;;;;;5094241;28;20032;-68
2021/11/20 07:51:57;;;;;;;29.05;16.70;;;8.00;99.90;;;;;;5063584;28;20126;-68
2021/11/20 07:54:26;;;;;;;33.88;18.50;;;8.10;99.90;;;;;;5065686;28;20043;-68
2021/11/20 07:57:16;;;;;;;32.17;17.98;;;8.20;99.90;;;;;;5111636;28;20383;-69
2021/11/20 07:59:45;;;;;;;29.63;17.30;;;8.20;99.90;;;;;;5088779;28;20055;-68
2021/11/20 08:02:39;;;;;;;28.80;16.90;;;8.30;99.90;;;;;;5091348;28;20044;-68
2021/11/20 08:05:08;;;;;;;30.30;16.52;;;8.30;99.90;;;;;;5084257;28;20086;-68
2021/11/20 08:07:40;;;;;;;25.63;15.27;;;8.30;99.90;;;;;;5085356;28;20070;-68
2021/11/20 08:10:18;;;;;;;30.02;16.77;;;8.30;99.90;;;;;;5067937;28;20124;-69
2021/11/20 08:12:46;;;;;;;27.38;15.02;;;8.30;99.90;;;;;;5069245;28;20074;-69
2021/11/20 08:15:34;;;;;;;27.13;15.68;;;8.30;99.90;;;;;;5106947;28;20122;-69
2021/11/20 08:18:20;;;;;;;26.52;15.30;;;8.30;99.90;;;;;;5109174;28;20067;-69
2021/11/20 08:21:06;;;;;;;31.80;18.02;;;8.40;99.90;;;;;;5103382;28;20048;-69
2021/11/20 08:23:54;;;;;;;32.03;18.60;;;8.40;99.90;;;;;;5080503;28;20046;-69
2021/11/20 08:26:24;;;;;;;30.23;16.80;;;8.40;99.90;;;;;;5108693;28;20046;-69
2021/11/20 08:28:52;;;;;;;26.48;14.90;;;8.40;99.90;;;;;;5090370;28;20047;-69
2021/11/20 08:31:20;;;;;;;29.05;15.88;;;8.40;99.90;;;;;;5110139;28;20052;-69
2021/11/20 08:34:12;;;;;;;;;;;8.40;99.90;;;;;;5081614;28;20118;-69
2021/11/20 08:36:55;;;;;;;26.45;14.88;;;8.40;99.90;;;;;;5077095;28;20047;-68
2021/11/20 08:39:35;;;;;;;30.13;16.08;;;8.50;99.90;;;;;;5082971;28;20094;-69
2021/11/20 08:42:05;;;;;;;27.55;16.33;;;8.50;99.90;;;;;;5090733;28;20043;-68
2021/11/20 08:44:33;;;;;;;30.30;16.70;;;8.50;99.90;;;;;;5076540;28;20406;-68
2021/11/20 08:47:03;;;;;;;29.80;16.88;;;8.50;99.90;;;;;;5060047;28;20304;-69
2021/11/20 08:49:33;;;;;;;30.88;16.10;;;8.60;99.90;;;;;;5090722;28;20528;-69
2021/11/20 08:52:03;;;;;;;24.92;14.50;;;8.60;99.90;;;;;;5091598;28;20797;-69
2021/11/20 08:54:32;;;;;;;28.98;16.23;;;8.70;99.90;;;;;;5089905;28;20722;-69
2021/11/20 08:57:00;;;;;;;27.52;15.93;;;8.70;99.90;;;;;;5090540;28;20458;-68
2021/11/20 08:59:33;;;;;;;24.27;14.38;;;8.70;99.90;;;;;;5077419;28;20479;-69
2021/11/20 09:02:12;;;;;;;25.40;15.20;;;8.80;99.90;;;;;;5104962;28;20117;-68
2021/11/20 09:05:26;;;;;;;24.65;15.50;;;8.90;99.90;;;;;;5072260;28;20169;-69
2021/11/20 09:08:36;;;;;;;27.00;15.82;;;9.00;99.90;;;;;;4985552;28;20467;-69
2021/11/20 09:11:19;;;;;;;31.95;16.73;;;9.00;99.90;;;;;;4980425;28;20050;-69
2021/11/20 09:14:14;;;;;;;30.70;16.42;;;9.00;99.90;;;;;;4972389;28;20073;-69
2021/11/20 09:16:59;;;;;;;25.60;14.70;;;9.10;99.90;;;;;;4987259;28;20061;-69
2021/11/20 09:19:28;;;;;;;24.27;14.68;;;9.10;99.90;;;;;;4983020;28;20054;-69
2021/11/20 09:21:59;;;;;;;27.60;15.93;;;9.20;99.90;;;;;;4985440;28;20072;-68
2021/11/20 09:24:42;;;;;;;25.50;14.30;;;9.20;99.90;;;;;;4975219;28;20045;-68
2021/11/20 09:27:34;;;;;;;24.13;14.40;;;9.30;99.90;;;;;;5006395;28;20124;-68
2021/11/20 09:30:08;;;;;;;28.10;15.80;;;9.40;99.90;;;;;;4990392;28;20551;-68
2021/11/20 09:32:35;;;;;;;26.05;15.32;;;9.30;99.90;;;;;;4990869;28;20090;-68
2021/11/20 09:35:14;;;;;;;27.05;15.55;;;9.30;99.90;;;;;;4989851;28;20054;-68
2021/11/20 09:38:02;;;;;;;26.67;15.35;;;9.40;99.90;;;;;;4991819;28;20442;-68
2021/11/20 09:40:32;;;;;;;25.50;15.82;;;9.40;99.90;;;;;;4990553;28;20603;-68
2021/11/20 09:43:05;;;;;;;30.75;16.30;;;9.40;99.90;;;;;;4994374;28;20042;-68
2021/11/20 09:45:53;;;;;;;28.08;15.90;;;9.40;99.90;;;;;;5101077;28;20068;-68
2021/11/20 09:48:42;;;;;;;27.42;16.92;;;9.50;99.90;;;;;;5083729;28;20446;-67
2021/11/20 09:51:26;;;;;;;25.85;15.73;;;9.60;99.90;;;;;;5075127;28;20059;-68
2021/11/20 09:54:00;;;;;;;25.52;15.55;;;9.60;99.90;;;;;;5072258;28;20048;-68
2021/11/20 09:56:36;;;;;;;24.73;15.40;;;9.60;99.90;;;;;;5109251;28;20112;-70
2021/11/20 09:59:12;;;;;;;25.30;15.32;;;9.70;99.90;;;;;;5071726;28;20036;-68
2021/11/20 10:01:47;;;;;;;26.73;15.52;;;9.70;99.90;;;;;;5084488;28;20032;-67
2021/11/20 10:04:29;;;;;;;28.52;14.40;;;9.70;99.90;;;;;;5099834;28;20508;-68
2021/11/20 10:07:13;;;;;;;29.90;16.35;;;9.80;99.90;;;;;;5103138;28;20032;-69
2021/11/20 10:09:46;;;;;;;27.25;15.90;;;9.80;99.90;;;;;;5101945;28;20059;-69
2021/11/20 10:12:24;;;;;;;25.52;14.82;;;9.80;99.90;;;;;;5099809;28;20485;-68
2021/11/20 10:15:04;;;;;;;26.00;15.90;;;9.90;99.90;;;;;;5086359;28;20062;-69
2021/11/20 10:17:53;;;;;;;25.58;16.30;;;9.90;99.90;;;;;;5107629;28;20044;-70
2021/11/20 10:20:36;;;;;;;28.05;16.85;;;9.90;99.90;;;;;;5098080;28;20645;-69
2021/11/20 10:23:09;;;;;;;25.00;15.75;;;9.90;99.90;;;;;;5101401;28;20151;-68
2021/11/20 10:26:31;;;;;;;25.08;15.27;;;9.90;99.90;;;;;;5090678;28;20131;-68
2021/11/20 10:29:06;;;;;;;25.60;15.82;;;10.00;99.90;;;;;;5001702;28;20048;-68
2021/11/20 10:31:38;;;;;;;27.60;16.60;;;10.10;99.90;;;;;;5006429;28;20089;-68
2021/11/20 10:34:08;;;;;;;;;;;10.10;99.90;;;;;;4995184;28;20054;-68
2021/11/20 10:36:50;;;;;;;31.35;15.77;;;10.10;99.90;;;;;;5011404;28;19932;-68
2021/11/20 10:39:34;;;;;;;30.30;17.50;;;10.20;99.90;;;;;;5010427;28;20401;-68
2021/11/20 10:42:09;;;;;;;23.75;14.98;;;10.10;99.90;;;;;;4995516;28;20098;-69
2021/11/20 10:44:39;;;;;;;26.20;16.08;;;10.20;99.90;;;;;;5007867;28;20149;-69
2021/11/20 10:47:13;;;;;;;23.58;14.90;;;10.30;99.90;;;;;;5011556;28;20045;-68
2021/11/20 10:50:04;;;;;;;27.17;16.88;;;10.30;99.90;;;;;;4998959;28;20077;-68
2021/11/20 10:53:22;;;;;;;26.00;15.95;;;10.40;99.90;;;;;;5005178;28;20065;-68
2021/11/20 10:56:23;;;;;;;28.40;16.65;;;10.20;99.90;;;;;;4902584;29;20052;-68
2021/11/20 10:59:14;;;;;;;25.48;15.77;;;10.20;99.90;;;;;;4917242;29;20088;-68
2021/11/20 11:02:22;;;;;;;31.58;17.63;;;10.10;99.90;;;;;;4930898;29;20398;-68
2021/11/20 11:05:27;;;;;;;27.67;16.95;;;10.10;99.90;;;;;;5013991;28;20053;-68
2021/11/20 11:08:22;;;;;;;25.92;15.68;;;10.10;99.90;;;;;;5028500;28;20288;-68
2021/11/20 11:11:02;;;;;;;25.85;16.70;;;10.00;99.90;;;;;;5021374;28;20491;-68
2021/11/20 11:13:42;;;;;;;24.70;15.60;;;10.00;99.90;;;;;;5027500;28;20430;-68
2021/11/20 11:16:21;;;;;;;27.80;15.68;;;10.10;99.90;;;;;;5027106;28;20057;-68
2021/11/20 11:18:55;;;;;;;25.92;15.75;;;10.20;99.90;;;;;;5025304;28;20501;-68
2021/11/20 11:21:40;;;;;;;27.23;16.60;;;10.30;99.90;;;;;;5027893;28;20511;-68
2021/11/20 11:24:27;;;;;;;23.58;15.02;;;10.30;99.90;;;;;;5020574;28;20048;-67
2021/11/20 11:27:44;;;;;;;28.00;17.08;;;10.20;99.90;;;;;;5018065;28;20056;-68
2021/11/20 11:30:20;;;;;;;28.35;17.35;;;10.20;99.90;;;;;;4970183;28;20057;-68
2021/11/20 11:32:47;;;;;;;29.77;16.95;;;10.00;99.90;;;;;;5032382;28;20495;-68
2021/11/20 11:35:39;;;;;;;26.23;16.30;;;10.10;99.90;;;;;;5032620;28;20136;-68
2021/11/20 11:38:25;;;;;;;26.17;16.63;;;10.10;99.90;;;;;;5047282;28;20618;-68
2021/11/20 11:41:11;;;;;;;24.52;15.25;;;10.10;99.90;;;;;;5049968;28;20040;-69
2021/11/20 11:44:12;;;;;;;27.50;16.98;;;10.20;99.90;;;;;;5049814;28;20041;-68
2021/11/20 11:47:14;;;;;;;27.67;16.65;;;10.20;99.90;;;;;;5035762;28;20057;-68
2021/11/20 11:49:54;;;;;;;30.00;17.65;;;10.30;99.90;;;;;;5006039;28;20041;-68
2021/11/20 11:52:44;;;;;;;25.92;16.13;;;10.30;99.90;;;;;;5049812;28;20052;-68
2021/11/20 11:55:18;;;;;;;25.35;15.70;;;10.40;99.90;;;;;;5032601;28;20044;-68
2021/11/20 11:58:09;;;;;;;27.35;17.83;;;10.50;99.90;;;;;;5032273;28;20045;-69
2021/11/20 12:00:41;;;;;;;26.52;16.65;;;10.60;99.90;;;;;;5041378;28;20049;-68
2021/11/20 12:03:27;;;;;;;28.90;17.30;;;10.70;99.90;;;;;;5048772;28;20051;-69
2021/11/20 12:06:13;;;;;;;29.42;16.15;;;10.70;99.90;;;;;;5048193;28;20040;-68
2021/11/20 12:08:47;;;;;;;26.20;15.70;;;10.70;99.90;;;;;;5092183;28;20044;-68
2021/11/20 12:11:24;;;;;;;25.17;16.42;;;10.70;99.90;;;;;;5074510;28;20040;-68
2021/11/20 12:14:20;;;;;;;25.05;16.60;;;10.70;99.90;;;;;;5092222;28;20040;-68
2021/11/20 12:17:03;;;;;;;24.92;15.30;;;10.70;99.90;;;;;;5087151;28;20428;-68
2021/11/20 12:19:49;;;;;;;27.52;16.35;;;10.70;99.90;;;;;;5079648;28;20046;-69
2021/11/20 12:22:45;;;;;;;28.65;16.73;;;10.80;99.90;;;;;;5097031;28;20036;-68
2021/11/20 12:25:44;;;;;;;30.80;17.80;;;10.80;99.90;;;;;;5092306;28;20044;-68
2021/11/20 12:28:27;;;;;;;23.38;15.23;;;10.70;99.90;;;;;;5080315;28;20042;-68
2021/11/20 12:31:03;;;;;;;29.73;17.90;;;10.70;99.90;;;;;;5086867;28;20418;-68
2021/11/20 12:33:56;;;;;;;24.75;15.77;;;10.60;99.90;;;;;;5085731;28;20513;-69
2021/11/20 12:36:41;;;;;;;16.17;11.40;;;10.60;99.90;;;;;;5108660;28;20502;-68
2021/11/20 12:39:24;;;;;;;14.57;10.10;;;10.60;99.90;;;;;;5081406;28;20380;-68
2021/11/20 12:42:29;;;;;;;16.50;10.70;;;10.60;99.90;;;;;;5093330;28;20044;-68
2021/11/20 12:45:27;;;;;;;19.45;12.15;;;10.60;99.90;;;;;;5072093;28;20036;-68
2021/11/20 12:48:05;;;;;;;22.65;13.73;;;10.60;99.90;;;;;;5070451;28;20058;-71
2021/11/20 12:51:05;;;;;;;17.42;11.98;;;10.60;99.90;;;;;;5082200;28;20043;-68
2021/11/20 12:53:38;;;;;;;18.45;12.38;;;10.60;99.90;;;;;;5098430;28;20075;-68
2021/11/20 12:56:17;;;;;;;16.00;10.40;;;10.50;99.90;;;;;;5088084;28;20049;-68
2021/11/20 12:58:49;;;;;;;16.15;10.63;;;10.50;99.90;;;;;;5092073;28;20062;-68
2021/11/20 13:01:21;;;;;;;17.67;10.07;;;10.50;99.90;;;;;;5091298;28;20035;-68
2021/11/20 13:04:04;;;;;;;14.27;9.70;;;10.30;99.90;;;;;;5104909;28;20371;-67
2021/11/20 13:06:45;;;;;;;15.77;10.43;;;10.30;99.90;;;;;;5093527;28;20035;-68
2021/11/20 13:09:31;;;;;;;16.50;10.70;;;10.20;99.90;;;;;;5092786;28;20073;-68
2021/11/20 13:12:35;;;;;;;17.08;10.63;;;10.20;99.90;;;;;;5099603;28;20126;-68
2021/11/20 13:15:15;;;;;;;21.30;12.13;;;10.10;99.90;;;;;;5075661;28;20071;-68
2021/11/20 13:17:57;;;;;;;17.80;11.70;;;10.00;99.90;;;;;;5110416;28;20050;-67
2021/11/20 13:21:01;;;;;;;17.65;11.27;;;10.00;99.90;;;;;;5104344;28;20498;-67
2021/11/20 13:23:31;;;;;;;16.48;11.68;;;10.00;99.90;;;;;;5090819;28;20040;-68
2021/11/20 13:26:02;;;;;;;16.85;10.18;;;10.00;99.90;;;;;;5076372;28;20039;-67